Terminal Aerodrome Forecast
Issued by NWS

Home | Current Version | Previous Version | Text Only | Print | Product List | Glossary Off
Versions: 1 2 3 4 5 6 7 8 9 10 11 12 13 14

150
FTUS43 KICT 172323
TAFRSL
TAF
KRSL 172323Z 1800/1824 12018G26KT P6SM FEW250
     FM180300 31024G34KT P6SM FEW250
     FM181700 33029G38KT P6SM FEW200=

USA.gov is the U.S. government's official web portal to all federal, state and local government web resources and services.